Time;durP1;ratioP1;P1;durP2;ratioP2;P2;SDS_P1;SDS_P2;PMS_P1;PMS_P2;Temp;Humidity;BMP_temperature;BMP_pressure;BME280_temperature;BME280_humidity;BME280_pressure;Samples;Min_cycle;Max_cycle;Signal;HPM_P1;HPM_P2
2021/08/05 00:02:01;;;;;;;6.83;3.90;;;;;;;14.86;100.00;9186.53;5075264;28;20082;-67
2021/08/05 00:04:27;;;;;;;7.17;4.07;;;;;;;14.84;100.00;12468.31;5063037;28;20111;-67
2021/08/05 00:06:52;;;;;;;6.83;3.70;;;;;;;14.83;100.00;22004.28;5067899;28;20084;-67
2021/08/05 00:09:19;;;;;;;7.13;3.63;;;;;;;14.84;100.00;23322.25;5065735;28;20028;-67
2021/08/05 00:11:44;;;;;;;5.87;3.67;;;;;;;14.79;100.00;21673.31;5059914;28;20055;-67
2021/08/05 00:14:10;;;;;;;7.20;3.90;;;;;;;14.79;100.00;26945.91;5068620;28;20189;-67
2021/08/05 00:16:35;;;;;;;6.43;3.80;;;;;;;14.76;100.00;25625.31;5073661;28;20036;-67
2021/08/05 00:19:01;;;;;;;6.00;3.57;;;;;;;14.74;100.00;26943.38;5066592;28;20039;-67
2021/08/05 00:21:27;;;;;;;6.67;3.97;;;;;;;14.72;100.00;31891.91;5059954;28;20113;-67
2021/08/05 00:23:52;;;;;;;6.67;3.47;;;;;;;14.65;100.00;34531.03;5062034;28;20114;-67
2021/08/05 00:26:17;;;;;;;7.87;4.33;;;;;;;14.60;100.00;41143.06;5058178;28;20033;-67
2021/08/05 00:28:43;;;;;;;6.80;3.97;;;;;;;14.59;100.00;46443.75;5054884;28;20040;-67
2021/08/05 00:31:10;;;;;;;8.90;4.13;;;;;;;14.56;100.00;44783.78;5044854;28;20416;-67
2021/08/05 00:33:35;;;;;;;8.13;4.17;;;;;;;14.49;100.00;44446.41;5064428;28;20131;-67
2021/08/05 00:36:01;;;;;;;9.77;4.83;;;;;;;14.44;100.00;45436.53;5050152;28;20127;-67
2021/08/05 00:38:26;;;;;;;8.97;4.53;;;;;;;14.39;100.00;47090.25;5044972;28;20028;-67
2021/08/05 00:40:52;;;;;;;8.17;4.23;;;;;;;14.32;100.00;48742.38;5062874;28;20119;-67
2021/08/05 00:43:18;;;;;;;9.27;4.90;;;;;;;14.28;100.00;51393.19;5061036;28;20655;-67
2021/08/05 00:45:44;;;;;;;8.00;4.70;;;;;;;14.24;100.00;54046.25;5071265;28;20040;-67
2021/08/05 00:48:09;;;;;;;9.40;4.90;;;;;;;14.19;100.00;56366.69;5056200;28;20108;-67
2021/08/05 00:50:35;;;;;;;8.27;4.87;;;;;;;14.19;100.00;57363.91;5070310;28;20182;-67
2021/08/05 00:53:00;;;;;;;8.23;5.10;;;;;;;14.08;100.00;54363.53;5063942;28;20808;-67
2021/08/05 00:55:26;;;;;;;9.33;4.80;;;;;;;14.10;100.00;57354.81;5056261;28;20624;-67
2021/08/05 00:57:53;;;;;;;7.87;4.50;;;;;;;14.03;100.00;60341.41;5061159;28;20033;-67
2021/08/05 01:00:19;;;;;;;9.73;5.00;;;;;;;13.98;100.00;62332.53;5067471;28;20033;-67
2021/08/05 01:02:50;;;;;;;8.47;4.97;;;;;;;13.91;100.00;61326.63;5061116;28;20044;-67
2021/08/05 01:05:17;;;;;;;9.57;5.28;;;;;;;13.85;100.00;63316.72;5060333;28;20044;-67
2021/08/05 01:07:59;;;;;;;15.90;6.47;;;;;;;13.79;100.00;64974.56;5069399;28;20036;-67
2021/08/05 01:10:41;;;;;;;10.55;5.60;;;;;;;13.71;100.00;66631.19;5057206;28;20058;-67
2021/08/05 01:13:30;;;;;;;10.67;5.13;;;;;;;13.81;100.00;70308.34;5070770;28;20062;-67
2021/08/05 01:15:59;;;;;;;10.30;5.30;;;;;;;13.78;100.00;71639.53;4999498;28;20040;-67
2021/08/05 01:18:36;;;;;;;9.70;5.63;;;;;;;13.78;100.00;71973.19;4999961;28;20069;-67
2021/08/05 01:21:09;;;;;;;10.53;5.43;;;;;;;13.78;100.00;71639.53;4999546;28;20073;-67
2021/08/05 01:23:42;;;;;;;12.30;5.87;;;;;;;13.79;100.00;72308.75;4999922;28;20030;-67
2021/08/05 01:26:12;;;;;;;10.80;5.53;;;;;;;13.83;100.00;72646.94;4999152;28;20072;-67
2021/08/05 01:28:40;;;;;;;12.00;6.10;;;;;;;13.90;100.00;73657.31;4989779;28;20033;-67
2021/08/05 01:31:07;;;;;;;10.07;6.03;;;;;;;13.91;100.00;72656.41;4999914;28;20033;-67
2021/08/05 01:33:36;;;;;;;9.13;5.63;;;;;;;13.88;100.00;71652.03;5000161;28;20046;-67
2021/08/05 01:36:02;;;;;;;10.80;5.43;;;;;;;13.86;100.00;69980.97;5000074;28;20041;-67
2021/08/05 01:38:31;;;;;;;9.67;5.40;;;;;;;13.86;100.00;68981.19;5001629;28;20051;-67
2021/08/05 01:40:58;;;;;;;12.90;6.23;;;;;;;13.87;100.00;68315.03;5002871;28;20041;-67
2021/08/05 01:43:25;;;;;;;9.83;5.50;;;;;;;13.83;100.00;66977.78;5003923;28;20052;-68
2021/08/05 01:45:51;;;;;;;10.40;5.73;;;;;;;13.82;100.00;66642.84;5003926;28;20057;-67
2021/08/05 01:48:18;;;;;;;9.63;5.53;;;;;;;13.72;100.00;65633.16;5001545;28;20062;-67
2021/08/05 01:50:44;;;;;;;11.10;6.13;;;;;;;13.72;100.00;66298.66;5003773;28;20121;-67
2021/08/05 01:53:14;;;;;;;11.73;5.63;;;;;;;13.62;100.00;66287.06;5030761;28;20175;-68
2021/08/05 01:55:41;;;;;;;8.53;5.60;;;;;;;13.58;100.00;66616.03;5061278;28;20072;-67
2021/08/05 01:58:06;;;;;;;9.60;5.63;;;;;;;13.61;100.00;68951.06;5062175;28;20040;-67
2021/08/05 02:00:31;;;;;;;10.90;5.80;;;;;;;13.60;100.00;69617.06;5062913;28;20393;-68
2021/08/05 02:02:57;;;;;;;9.70;5.73;;;;;;;13.63;100.00;70620.31;5071682;28;20110;-67
2021/08/05 02:06:07;;;;;;;11.90;6.50;;;;;;;13.58;100.00;70614.75;5062109;28;20032;-68
2021/08/05 02:08:57;;;;;;;10.90;5.90;;;;;;;13.56;100.00;70611.66;5059362;28;20071;-68
2021/08/05 02:11:28;;;;;;;11.87;6.10;;;;;;;13.53;100.00;69941.25;5068316;28;20129;-68
2021/08/05 02:13:54;;;;;;;9.67;5.80;;;;;;;13.55;100.00;70277.03;5069760;28;20405;-68
2021/08/05 02:16:23;;;;;;;11.70;6.00;;;;;;;13.48;100.00;69603.09;5081561;28;20043;-68
2021/08/05 02:18:51;;;;;;;12.27;6.03;;;;;;;13.47;100.00;69935.16;5058320;28;20036;-67
2021/08/05 02:21:21;;;;;;;11.73;6.27;;;;;;;13.43;100.00;69596.38;5066537;28;20073;-67
2021/08/05 02:23:48;;;;;;;10.57;5.77;;;;;;;13.44;100.00;70264.78;5055837;28;20059;-68
2021/08/05 02:26:15;;;;;;;13.47;6.27;;;;;;;13.44;100.00;71264.88;5066426;28;20065;-68
2021/08/05 02:28:40;;;;;;;10.43;6.13;;;;;;;13.46;100.00;71266.75;5056191;28;20033;-68
2021/08/05 02:31:09;;;;;;;12.30;6.30;;;;;;;13.41;100.00;70594.41;5062874;28;20040;-68
2021/08/05 02:33:36;;;;;;;10.27;5.83;;;;;;;13.31;100.00;71248.06;5063016;28;20024;-68
2021/08/05 02:36:03;;;;;;;14.10;6.37;;;;;;;13.24;100.00;71906.03;5071435;28;20365;-68
2021/08/05 02:38:28;;;;;;;10.80;6.20;;;;;;;13.21;100.00;72569.66;5077383;28;20515;-67
2021/08/05 02:40:54;;;;;;;11.90;6.53;;;;;;;13.22;100.00;73570.69;5069724;28;20060;-68
2021/08/05 02:43:24;;;;;;;14.60;6.73;;;;;;;13.24;100.00;73573.91;5068199;28;20039;-68
2021/08/05 02:45:51;;;;;;;18.73;6.77;;;;;;;13.28;100.00;73911.94;5079419;28;20043;-68
2021/08/05 02:48:17;;;;;;;12.90;6.53;;;;;;;13.35;100.00;74255.25;5059436;28;20040;-68
2021/08/05 02:50:43;;;;;;;12.80;7.13;;;;;;;13.38;100.00;73591.22;5064554;28;20035;-68
2021/08/05 02:53:10;;;;;;;12.50;7.23;;;;;;;13.47;100.00;72936.16;5067071;28;20029;-68
2021/08/05 02:55:37;;;;;;;11.70;6.67;;;;;;;13.52;100.00;71273.59;5068117;28;20032;-67
2021/08/05 02:58:03;;;;;;;11.87;6.87;;;;;;;13.56;100.00;69944.91;5067332;28;20420;-67
2021/08/05 03:00:28;;;;;;;14.70;6.73;;;;;;;13.65;100.00;68956.47;5083042;28;20099;-67
2021/08/05 03:02:54;;;;;;;11.93;6.90;;;;;;;13.71;100.00;67296.88;5069148;28;20066;-67
2021/08/05 03:05:20;;;;;;;14.60;7.43;;;;;;;13.77;100.00;66304.47;5078956;28;20036;-67
2021/08/05 03:07:45;;;;;;;11.73;7.13;;;;;;;13.85;100.00;63982.50;5063871;28;20036;-67
2021/08/05 03:10:15;;;;;;;14.60;7.40;;;;;;;13.94;100.00;61662.06;5063138;28;20649;-67
2021/08/05 03:12:42;;;;;;;12.67;7.60;;;;;;;13.96;100.00;60666.63;5063085;28;20024;-67
2021/08/05 03:15:08;;;;;;;12.77;7.50;;;;;;;13.97;100.00;60667.69;5058479;28;20488;-67
2021/08/05 03:17:34;;;;;;;11.63;6.80;;;;;;;14.00;100.00;60670.91;5070074;28;20024;-67
2021/08/05 03:19:59;;;;;;;14.73;7.43;;;;;;;14.03;100.00;61339.00;5071751;28;20039;-67
2021/08/05 03:22:25;;;;;;;12.70;7.80;;;;;;;14.02;100.00;62669.75;5067515;28;20053;-67
2021/08/05 03:24:50;;;;;;;14.60;7.67;;;;;;;14.03;100.00;61672.31;5061780;28;20428;-67
2021/08/05 03:27:16;;;;;;;12.80;7.60;;;;;;;14.05;100.00;62340.19;5072626;28;20041;-67
2021/08/05 03:29:41;;;;;;;12.27;7.53;;;;;;;14.07;100.00;62674.72;5057925;28;20090;-67
2021/08/05 03:32:07;;;;;;;13.97;7.70;;;;;;;14.00;100.00;57345.72;5067935;28;20037;-67
2021/08/05 03:34:32;;;;;;;13.83;7.97;;;;;;;14.02;100.00;56018.03;5066027;28;20105;-67
2021/08/05 03:36:58;;;;;;;16.40;7.97;;;;;;;14.00;100.00;54355.84;5064169;28;20024;-67
2021/08/05 03:39:24;;;;;;;14.20;7.77;;;;;;;13.99;100.00;54686.47;5064935;28;20020;-67
2021/08/05 03:41:50;;;;;;;14.90;8.43;;;;;;;14.01;100.00;56349.81;5065520;28;20553;-67
2021/08/05 03:44:16;;;;;;;16.10;8.10;;;;;;;14.02;100.00;57680.13;5055892;28;20420;-67
2021/08/05 03:46:41;;;;;;;15.53;8.50;;;;;;;14.02;100.00;56350.78;5063970;28;20039;-67
2021/08/05 03:49:07;;;;;;;14.17;8.10;;;;;;;14.00;100.00;54687.44;5059696;28;20123;-67
2021/08/05 03:51:33;;;;;;;12.97;8.00;;;;;;;14.00;100.00;54023.81;5064928;28;20333;-67
2021/08/05 03:53:58;;;;;;;16.80;8.30;;;;;;;14.02;100.00;54689.84;5058685;28;20383;-67
2021/08/05 03:56:24;;;;;;;12.57;7.67;;;;;;;14.06;100.00;57351.78;5074710;28;20032;-67
2021/08/05 03:58:49;;;;;;;13.10;7.83;;;;;;;14.07;100.00;56355.78;5075827;28;20038;-67
2021/08/05 04:01:15;;;;;;;12.17;7.07;;;;;;;14.07;100.00;54362.59;5061923;28;20089;-67
2021/08/05 04:03:40;;;;;;;12.37;7.33;;;;;;;14.04;100.00;54027.16;5069462;28;20056;-67
2021/08/05 04:06:07;;;;;;;12.70;7.30;;;;;;;14.05;100.00;55024.41;5065056;28;20599;-67
2021/08/05 04:08:33;;;;;;;13.10;7.33;;;;;;;14.05;100.00;56021.53;5065940;28;20106;-67
2021/08/05 04:10:58;;;;;;;21.70;7.67;;;;;;;14.06;100.00;55358.06;5073295;28;20111;-67
2021/08/05 04:13:24;;;;;;;14.03;8.03;;;;;;;14.10;100.00;53368.31;5061026;28;20025;-67
2021/08/05 04:15:49;;;;;;;12.93;7.63;;;;;;;14.08;100.00;49717.25;5061893;28;20703;-67
2021/08/05 04:18:15;;;;;;;12.63;7.80;;;;;;;14.11;100.00;47398.19;5059689;28;20041;-67
2021/08/05 04:20:40;;;;;;;13.87;7.80;;;;;;;14.13;100.00;48394.34;5072548;28;20024;-67
2021/08/05 04:23:06;;;;;;;13.27;7.70;;;;;;;14.16;100.00;48728.50;5074979;28;20466;-67
2021/08/05 04:25:31;;;;;;;14.07;8.20;;;;;;;14.17;100.00;46077.63;5062994;28;20029;-67
2021/08/05 04:27:57;;;;;;;11.87;6.70;;;;;;;14.10;100.00;42760.94;5064099;28;20039;-67
2021/08/05 04:30:24;;;;;;;14.37;7.80;;;;;;;14.10;100.00;45078.53;5063883;28;20101;-67
2021/08/05 04:32:50;;;;;;;13.40;7.67;;;;;;;14.12;100.00;48725.47;5060968;28;20173;-67
2021/08/05 04:35:15;;;;;;;14.87;7.30;;;;;;;14.13;100.00;46737.03;5068128;28;20140;-67
2021/08/05 04:37:55;;;;;;;14.40;7.43;;;;;;;14.16;100.00;47733.88;5062478;28;20074;-67
2021/08/05 04:40:22;;;;;;;13.37;7.50;;;;;;;14.21;100.00;46081.34;5050989;28;20075;-67
2021/08/05 04:42:48;;;;;;;13.13;7.20;;;;;;;14.25;100.00;45752.84;5075261;28;20039;-67
2021/08/05 04:45:14;;;;;;;12.97;7.50;;;;;;;14.31;100.00;42445.97;5070936;28;20024;-67
2021/08/05 04:47:57;;;;;;;12.80;7.20;;;;;;;14.38;100.00;37818.78;5080795;28;20028;-67
2021/08/05 04:50:28;;;;;;;13.43;6.90;;;;;;;14.45;100.00;30226.66;5059213;28;20026;-67
2021/08/05 04:52:54;;;;;;;12.27;6.90;;;;;;;14.53;100.00;29571.25;5056505;28;20032;-67
2021/08/05 04:55:20;;;;;;;14.00;6.77;;;;;;;14.63;100.00;29576.72;5064479;28;20469;-67
2021/08/05 04:57:57;;;;;;;11.77;7.03;;;;;;;14.77;100.00;23978.03;5068459;28;20020;-67
2021/08/05 05:00:24;;;;;;;12.63;6.70;;;;;;;14.85;100.00;6562.94;5053957;28;20423;-67
2021/08/05 05:02:50;;;;;;;12.33;6.90;;;;;;;15.12;100.00;6239.53;5075945;28;20048;-67
2021/08/05 05:05:15;;;;;;;12.33;6.50;;;;;;;15.60;100.00;-18936.69;5071884;28;20034;-68
2021/08/05 05:07:41;;;;;;;11.40;6.87;;;;;;;16.12;100.00;-19585.34;5080910;28;20472;-68
2021/08/05 05:10:08;;;;;;;9.97;5.40;;;;;;;16.03;100.00;-19583.13;5053784;28;20032;-68
2021/08/05 05:12:34;;;;;;;13.93;5.73;;;;;;;16.09;100.00;-19584.56;5062908;28;20082;-67
2021/08/05 05:15:00;;;;;;;9.10;5.70;;;;;;;16.07;100.00;-19584.16;5064980;28;20031;-67
2021/08/05 05:17:25;;;;;;;9.87;6.83;;;;;;;16.09;100.00;-19584.69;5082879;28;20035;-67
2021/08/05 05:19:51;;;;;;;11.37;6.63;;;;;;;16.08;100.00;-19584.28;5056223;28;20059;-67
2021/08/05 05:22:16;;;;;;;9.07;5.70;;;;;;;16.64;100.00;-19598.66;5062689;28;20036;-68
2021/08/05 05:24:42;;;;;;;9.20;6.13;;;;;;;17.76;100.00;-19627.38;5066630;28;20550;-70
2021/08/05 05:27:07;;;;;;;8.27;4.83;;;;;;;19.19;100.00;-19664.13;5075725;28;20028;-70
2021/08/05 05:29:34;;;;;;;7.97;4.60;;;;;;;20.18;100.00;-19689.50;5079455;28;20089;-70
2021/08/05 05:32:00;;;;;;;8.00;4.53;;;;;;;19.80;100.00;-19679.75;5070441;28;20092;-69
2021/08/05 05:34:25;;;;;;;9.37;4.63;;;;;;;18.74;100.00;-19652.56;5062926;28;20036;-67
2021/08/05 05:36:51;;;;;;;8.67;4.97;;;;;;;18.14;100.00;-19637.28;5062503;28;20127;-67
2021/08/05 05:39:16;;;;;;;8.53;5.20;;;;;;;17.57;100.00;-19622.69;5060384;28;20070;-67
2021/08/05 05:41:41;;;;;;;12.07;4.90;;;;;;;17.34;100.00;-19616.69;5060730;28;20078;-67
2021/08/05 05:44:07;;;;;;;8.23;4.93;;;;;;;17.08;100.00;-19610.03;5073771;28;20031;-67
2021/08/05 05:46:32;;;;;;;9.63;4.67;;;;;;;16.85;100.00;-19604.03;5056744;28;20119;-67
2021/08/05 05:48:58;;;;;;;8.17;5.07;;;;;;;16.68;100.00;-19599.72;5053439;28;20028;-66
2021/08/05 05:51:23;;;;;;;9.23;5.17;;;;;;;16.54;100.00;-19596.06;5062184;28;20032;-67
2021/08/05 05:53:49;;;;;;;9.53;4.70;;;;;;;16.60;100.00;-19597.63;5052003;28;20071;-66
2021/08/05 05:56:15;;;;;;;8.80;5.27;;;;;;;16.64;100.00;-19598.78;5062740;28;20465;-67
2021/08/05 05:58:40;;;;;;;7.57;4.80;;;;;;;16.60;100.00;-19597.63;5057518;28;20032;-67
2021/08/05 06:01:06;;;;;;;7.73;5.03;;;;;;;16.68;100.00;-19599.84;5056008;28;20044;-67
2021/08/05 06:03:31;;;;;;;7.90;4.93;;;;;;;16.68;100.00;-19599.72;5054378;28;20159;-67
2021/08/05 06:05:57;;;;;;;8.17;5.10;;;;;;;16.78;100.00;-19602.19;5061417;28;20104;-67
2021/08/05 06:08:22;;;;;;;8.93;4.90;;;;;;;17.03;100.00;-19608.59;5054489;28;20638;-67
2021/08/05 06:10:48;;;;;;;8.00;5.03;;;;;;;17.13;100.00;-19611.34;5058550;28;20052;-67
2021/08/05 06:13:13;;;;;;;9.23;4.80;;;;;;;17.23;100.00;-19613.94;5057436;28;20057;-67
2021/08/05 06:15:39;;;;;;;7.17;4.67;;;;;;;17.14;100.00;-19611.59;5042732;28;20079;-67
2021/08/05 06:18:04;;;;;;;8.63;4.73;;;;;;;17.21;100.00;-19613.28;5042221;28;20025;-67
2021/08/05 06:20:30;;;;;;;7.77;4.73;;;;;;;17.36;100.00;-19617.22;5055035;28;20020;-67
2021/08/05 06:22:55;;;;;;;8.63;5.40;;;;;;;17.37;100.00;-19617.47;5059587;28;20538;-67
2021/08/05 06:25:21;;;;;;;7.67;4.53;;;;;;;17.37;100.00;-19617.47;5045754;28;20111;-67
2021/08/05 06:27:47;;;;;;;8.23;5.60;;;;;;;17.63;100.00;-19624.00;5049865;28;20120;-67
2021/08/05 06:30:14;;;;;;;11.40;5.47;;;;;;;17.62;100.00;-19623.88;5051508;28;20440;-67
2021/08/05 06:32:40;;;;;;;9.37;4.87;;;;;;;17.61;100.00;-19623.47;5047695;28;20054;-67
2021/08/05 06:35:07;;;;;;;7.47;5.00;;;;;;;17.50;100.00;-19620.88;5050223;28;20120;-67
2021/08/05 06:37:33;;;;;;;9.47;5.33;;;;;;;17.60;100.00;-19623.22;5046884;28;20025;-67
2021/08/05 06:39:59;;;;;;;9.77;5.20;;;;;;;17.59;100.00;-19623.09;5059407;28;20047;-67
2021/08/05 06:42:25;;;;;;;8.60;4.93;;;;;;;17.67;100.00;-19625.03;5062168;28;20024;-67
2021/08/05 06:44:50;;;;;;;8.00;5.23;;;;;;;17.71;100.00;-19626.09;5079997;28;20031;-67
2021/08/05 06:47:16;;;;;;;8.37;5.10;;;;;;;17.85;100.00;-19629.75;5085462;28;20488;-67
2021/08/05 06:49:43;;;;;;;7.87;4.77;;;;;;;17.77;100.00;-19627.66;5071529;28;20393;-67
2021/08/05 06:52:08;;;;;;;7.30;4.90;;;;;;;17.78;100.00;-19627.91;5085551;28;20036;-65
2021/08/05 06:54:34;;;;;;;9.47;4.77;;;;;;;17.82;100.00;-19628.97;5056617;28;20720;-67
2021/08/05 06:56:59;;;;;;;9.80;5.53;;;;;;;17.89;100.00;-19630.78;5065310;28;20111;-68
2021/08/05 06:59:25;;;;;;;9.37;5.20;;;;;;;17.89;100.00;-19630.78;5057106;28;20083;-68
2021/08/05 07:01:50;;;;;;;7.93;4.80;;;;;;;17.99;100.00;-19633.38;5085003;28;20114;-67
2021/08/05 07:04:16;;;;;;;7.50;4.93;;;;;;;18.02;100.00;-19634.16;5060642;28;20039;-67
2021/08/05 07:06:41;;;;;;;7.27;4.93;;;;;;;18.16;100.00;-19637.81;5064908;28;20031;-68
2021/08/05 07:09:08;;;;;;;7.97;4.90;;;;;;;18.30;100.00;-19641.22;5058687;28;20672;-68
2021/08/05 07:11:33;;;;;;;9.43;5.13;;;;;;;18.52;100.00;-19646.94;5085223;28;20120;-68
2021/08/05 07:13:59;;;;;;;7.60;5.10;;;;;;;18.72;100.00;-19652.03;5064858;28;20067;-68
2021/08/05 07:16:24;;;;;;;8.95;5.07;;;;;;;18.80;100.00;-19653.97;5064693;28;20100;-68
2021/08/05 07:18:50;;;;;;;10.48;4.80;;;;;;;18.69;100.00;-19651.25;5060574;28;20032;-68
2021/08/05 07:21:15;;;;;;;9.27;5.28;;;;;;;18.89;100.00;-19656.31;5084981;28;20043;-68
2021/08/05 07:23:41;;;;;;;8.10;5.10;;;;;;;19.42;100.00;-19669.88;5068253;28;20036;-68
2021/08/05 07:26:06;;;;;;;10.45;5.57;;;;;;;19.78;100.00;-19679.25;5084628;28;20035;-68
2021/08/05 07:28:32;;;;;;;9.75;4.78;;;;;;;19.68;100.00;-19676.50;5071761;28;20037;-68
2021/08/05 07:30:58;;;;;;;9.65;4.85;;;;;;;19.69;100.00;-19676.91;5064390;28;20615;-68
2021/08/05 07:33:24;;;;;;;6.97;4.90;;;;;;;19.67;100.00;-19676.38;5063515;28;20093;-68
2021/08/05 07:35:50;;;;;;;7.10;4.70;;;;;;;19.76;100.00;-19678.59;5083542;28;20027;-68
2021/08/05 07:38:15;;;;;;;10.20;4.95;;;;;;;19.96;100.00;-19683.78;5077839;28;20572;-68
2021/08/05 07:40:41;;;;;;;9.93;4.63;;;;;;;20.12;100.00;-19687.81;5063088;28;20025;-68
2021/08/05 07:43:07;;;;;;;7.75;4.18;;;;;;;20.23;100.00;-19690.69;5074938;28;20029;-68
2021/08/05 07:45:33;;;;;;;8.05;4.63;;;;;;;19.97;100.00;-19683.91;5064249;28;20028;-68
2021/08/05 07:47:59;;;;;;;7.50;4.85;;;;;;;20.12;100.00;-19687.81;5060594;28;20047;-68
2021/08/05 07:50:24;;;;;;;7.20;4.47;;;;;;;20.11;100.00;-19687.56;5064372;28;20040;-68
2021/08/05 07:52:50;;;;;;;6.97;4.88;;;;;;;19.97;100.00;-19684.06;5080221;28;20031;-67
2021/08/05 07:55:16;;;;;;;8.82;4.80;;;;;;;19.99;100.00;-19684.44;5053609;28;20565;-68
2021/08/05 07:57:42;;;;;;;8.20;4.72;;;;;;;20.04;100.00;-19685.75;5078867;28;20024;-68
2021/08/05 08:00:08;;;;;;;10.43;5.30;;;;;;;20.42;100.00;-19695.50;5054067;28;20032;-68
2021/08/05 08:02:34;;;;;;;7.03;4.72;;;;;;;20.55;100.00;-19698.88;5063428;28;20075;-68
2021/08/05 08:04:59;;;;;;;8.23;4.90;;;;;;;20.89;100.00;-19707.59;5064060;28;20059;-68
2021/08/05 08:07:25;;;;;;;8.60;4.70;;;;;;;20.97;100.00;-19709.53;5083801;28;20035;-68
2021/08/05 08:09:50;;;;;;;7.72;4.35;;;;;;;21.02;100.00;-19710.97;5056199;28;20032;-68
2021/08/05 08:12:16;;;;;;;7.50;4.60;;;;;;;21.19;100.00;-19715.09;5063720;28;20051;-68
2021/08/05 08:14:41;;;;;;;7.20;4.72;;;;;;;21.30;100.00;-19717.97;5065098;28;20526;-68
2021/08/05 08:17:07;;;;;;;6.47;4.25;;;;;;;21.32;100.00;-19718.50;5083728;28;20461;-68
2021/08/05 08:19:32;;;;;;;7.20;4.60;;;;;;;21.53;100.00;-19723.81;5060611;28;20074;-68
2021/08/05 08:22:00;;;;;;;7.88;4.60;;;;;;;21.46;100.00;-19722.13;5063370;28;20024;-68
2021/08/05 08:24:26;;;;;;;7.90;4.72;;;;;;;21.61;100.00;-19726.03;5067233;28;20063;-69
2021/08/05 08:26:52;;;;;;;7.25;4.43;;;;;;;21.81;100.00;-19730.94;5083680;28;20919;-69
2021/08/05 08:29:17;;;;;;;8.00;4.20;;;;;;;22.16;100.00;-19740.03;5065382;28;20119;-69
2021/08/05 08:31:43;;;;;;;7.05;4.25;;;;;;;22.44;100.00;-19747.03;5063294;28;20025;-69
2021/08/05 08:34:08;;;;;;;6.57;4.43;;;;;;;22.38;100.00;-19745.59;5069215;28;20036;-68
2021/08/05 08:36:38;;;;;;;7.75;4.60;;;;;;;22.59;100.00;-19750.78;5083459;28;20073;-69
2021/08/05 08:39:03;;;;;;;8.23;3.97;;;;;;;23.28;100.00;-19768.53;5069449;28;20082;-70
2021/08/05 08:41:30;;;;;;;7.28;4.28;;;;;;;23.63;100.00;-19777.34;5063348;28;20350;-70
2021/08/05 08:43:56;;;;;;;6.20;4.35;;;;;;;23.59;100.00;-19776.31;5063491;28;20032;-70
2021/08/05 08:46:23;;;;;;;6.40;3.92;;;;;;;24.35;100.00;-19795.72;5067168;28;20028;-71
2021/08/05 08:48:53;;;;;;;6.35;3.75;;;;;;;24.74;100.00;-19805.66;5063927;28;20021;-71
2021/08/05 08:51:23;;;;;;;6.32;3.80;;;;;;;24.52;97.28;-19799.97;5067031;28;20562;-71
2021/08/05 08:53:51;;;;;;;9.73;4.10;;;;;;;23.72;100.00;-19779.53;5063860;28;20043;-71
2021/08/05 08:56:21;;;;;;;7.03;3.85;;;;;;;23.96;100.00;-19785.88;5071006;28;20409;-72
2021/08/05 08:58:47;;;;;;;6.07;3.70;;;;;;;24.00;100.00;-19786.66;5064437;28;20088;-70
2021/08/05 09:01:12;;;;;;;6.18;3.63;;;;;;;23.74;100.00;-19780.19;5063136;28;20380;-70
2021/08/05 09:03:39;;;;;;;6.60;3.90;;;;;;;23.45;100.00;-19772.81;5054122;28;20041;-69
2021/08/05 09:06:04;;;;;;;7.25;4.13;;;;;;;23.48;100.00;-19773.47;5082997;28;20016;-70
2021/08/05 09:08:30;;;;;;;6.65;4.15;;;;;;;24.02;100.00;-19787.19;5076825;28;20043;-71
2021/08/05 09:10:56;;;;;;;8.23;3.78;;;;;;;24.35;97.62;-19795.59;5084046;28;20028;-71
2021/08/05 09:13:22;;;;;;;5.82;3.80;;;;;;;24.49;96.63;-19799.22;5064380;28;20040;-71
2021/08/05 09:15:48;;;;;;;5.90;3.60;;;;;;;24.21;100.00;-19792.09;5063036;28;20036;-71
2021/08/05 09:18:41;;;;;;;6.53;3.95;;;;;;;24.70;98.82;-19804.50;5060390;28;20032;-72
2021/08/05 09:21:21;;;;;;;7.70;3.85;;;;;;;24.32;97.44;-19794.94;5047960;28;20044;-71
2021/08/05 09:24:06;;;;;;;7.88;4.47;;;;;;;24.54;93.97;-19800.63;5063317;28;20034;-71
2021/08/05 09:26:46;;;;;;;6.50;4.25;;;;;;;24.55;97.28;-19800.88;5064781;28;20913;-72
2021/08/05 09:29:18;;;;;;;9.80;3.80;;;;;;;25.13;93.39;-19815.47;5064315;28;20032;-72
2021/08/05 09:32:01;;;;;;;6.35;4.20;;;;;;;25.82;86.63;-19832.91;5070817;28;20364;-74
2021/08/05 09:34:40;;;;;;;6.97;4.50;;;;;;;27.35;72.12;-19871.81;5072527;28;20484;-76
2021/08/05 09:37:08;;;;;;;7.35;4.60;;;;;;;28.21;66.56;-19893.56;5076265;28;20124;-74
2021/08/05 09:39:38;;;;;;;9.70;4.40;;;;;;;28.52;64.72;-19901.41;5076319;28;20032;-76
2021/08/05 09:42:24;;;;;;;6.53;4.15;;;;;;;28.79;63.89;-19908.09;5074689;28;20025;-76
2021/08/05 09:44:55;;;;;;;9.32;4.10;;;;;;;29.02;64.00;-19914.00;5072239;28;20032;-76
2021/08/05 09:47:22;;;;;;;5.90;3.63;;;;;;;28.13;67.81;-19891.38;5083680;28;20036;-77
2021/08/05 09:49:53;;;;;;;7.05;3.53;;;;;;;27.87;62.07;-19884.94;5071774;28;20358;-77
2021/08/05 09:52:31;;;;;;;;;;;;;;;29.26;58.64;-19920.03;5070695;28;20593;-76
2021/08/05 09:55:02;;;;;;;8.88;3.55;;;;;;;28.96;58.46;-19912.47;5057667;28;19917;-73
2021/08/05 09:57:30;;;;;;;6.53;3.70;;;;;;;28.52;60.30;-19901.41;5050794;28;20059;-74
2021/08/05 10:00:21;;;;;;;6.18;3.75;;;;;;;29.33;57.79;-19921.69;5059285;28;20024;-75
2021/08/05 10:02:52;;;;;;;10.80;3.85;;;;;;;29.57;56.13;-19927.84;5011691;28;20041;-74
2021/08/05 10:05:21;;;;;;;;;;;;;;;28.94;59.61;-19911.81;5013737;28;20041;-77
2021/08/05 10:07:56;;;;;;;5.93;4.13;;;;;;;29.45;55.95;-19924.78;5014603;28;19921;-75
2021/08/05 10:10:27;;;;;;;5.88;3.70;;;;;;;29.53;56.04;-19926.81;5014366;28;20034;-75
2021/08/05 10:13:00;;;;;;;6.28;3.78;;;;;;;28.24;59.12;-19894.22;4992559;28;20042;-74
2021/08/05 10:15:27;;;;;;;7.03;3.53;;;;;;;28.72;57.74;-19906.28;5006646;28;20038;-75
2021/08/05 10:17:59;;;;;;;5.57;3.72;;;;;;;27.91;66.90;-19885.84;4999676;28;20021;-76
2021/08/05 10:20:27;;;;;;;6.07;3.60;;;;;;;28.97;54.85;-19912.59;5011210;28;20038;-74
2021/08/05 10:22:55;;;;;;;5.75;3.70;;;;;;;28.74;54.75;-19906.81;5005388;28;20030;-74
2021/08/05 10:25:25;;;;;;;7.25;4.05;;;;;;;28.67;57.74;-19905.13;5005681;28;20135;-74
2021/08/05 10:27:51;;;;;;;6.22;4.07;;;;;;;29.29;56.10;-19920.66;4995717;28;20061;-74
2021/08/05 10:30:17;;;;;;;5.65;3.03;;;;;;;28.94;52.56;-19911.94;5004449;28;20534;-72
2021/08/05 10:32:45;;;;;;;4.55;2.90;;;;;;;28.57;55.11;-19902.69;5003746;28;20037;-73
2021/08/05 10:35:12;;;;;;;6.00;4.00;;;;;;;28.46;55.17;-19899.72;5003696;28;20196;-72
2021/08/05 10:37:38;;;;;;;6.07;4.10;;;;;;;27.92;60.69;-19886.09;5005872;28;20022;-74
2021/08/05 10:40:09;;;;;;;7.28;4.07;;;;;;;28.25;58.66;-19894.47;5045911;28;20041;-74
2021/08/05 10:42:35;;;;;;;6.20;3.88;;;;;;;28.41;56.69;-19898.44;5067804;28;20066;-73
2021/08/05 10:45:01;;;;;;;5.97;4.10;;;;;;;29.56;54.25;-19927.59;5067785;28;20102;-74
2021/08/05 10:47:29;;;;;;;5.80;3.60;;;;;;;28.97;55.56;-19912.59;5068013;28;20502;-75
2021/08/05 10:49:58;;;;;;;6.15;3.80;;;;;;;28.39;56.78;-19897.94;5067345;28;20025;-74
2021/08/05 10:52:57;;;;;;;6.75;4.13;;;;;;;28.55;56.82;-19902.19;5070467;28;20385;-74
2021/08/05 10:55:32;;;;;;;7.70;4.03;;;;;;;26.74;64.58;-19856.25;5049918;28;20028;-73
2021/08/05 10:58:18;;;;;;;5.85;3.90;;;;;;;26.96;64.38;-19861.78;5064873;28;20056;-71
2021/08/05 11:01:00;;;;;;;5.60;3.67;;;;;;;25.78;65.73;-19831.88;5076848;28;20100;-69
2021/08/05 11:03:40;;;;;;;6.07;4.30;;;;;;;25.28;71.93;-19819.22;5071086;28;20466;-69
2021/08/05 11:06:29;;;;;;;6.18;3.67;;;;;;;26.20;70.22;-19842.72;5064478;28;20105;-69
2021/08/05 11:08:54;;;;;;;6.43;3.67;;;;;;;26.84;64.57;-19858.81;5051800;28;20500;-70
2021/08/05 11:11:30;;;;;;;5.70;4.10;;;;;;;26.05;67.35;-19838.84;5085097;28;20030;-69
2021/08/05 11:14:37;;;;;;;6.18;4.15;;;;;;;25.04;77.88;-19813.28;5067129;28;20044;-69
2021/08/05 11:17:04;;;;;;;6.93;4.18;;;;;;;25.89;72.69;-19834.84;5056435;28;20574;-70
2021/08/05 11:19:31;;;;;;;5.85;3.95;;;;;;;27.38;64.73;-19872.59;5068598;28;20043;-69
2021/08/05 11:21:57;;;;;;;5.45;3.45;;;;;;;26.84;64.98;-19858.81;5084688;28;20066;-69
2021/08/05 11:25:01;;;;;;;3.67;2.30;;;;;;;27.26;59.57;-19869.50;5071042;28;20028;-69